createdAt,value
2022-12-11T00:01:17.019Z,12.40
2022-12-11T00:03:46.202Z,12.30
2022-12-11T00:06:15.070Z,12.20
2022-12-11T00:08:42.809Z,12.60
2022-12-11T00:11:13.297Z,12.40
2022-12-11T00:13:39.908Z,11.60
2022-12-11T00:16:07.265Z,12.00
2022-12-11T00:18:34.257Z,11.90
2022-12-11T00:21:02.451Z,12.00
2022-12-11T00:23:29.123Z,11.80
2022-12-11T00:25:56.111Z,11.10
2022-12-11T00:28:22.982Z,10.50
2022-12-11T00:30:49.660Z,10.30
2022-12-11T00:33:16.633Z,10.80
2022-12-11T00:35:45.768Z,10.40
2022-12-11T00:38:17.668Z,10.80
2022-12-11T00:40:44.560Z,10.90
2022-12-11T00:43:12.121Z,11.30
2022-12-11T00:45:44.628Z,11.60
2022-12-11T00:48:12.984Z,13.30
2022-12-11T00:50:40.338Z,14.30
2022-12-11T00:53:07.309Z,15.50
2022-12-11T00:55:41.571Z,16.60
2022-12-11T00:58:09.385Z,19.80
2022-12-11T01:00:36.843Z,19.10
2022-12-11T01:03:04.402Z,17.70
2022-12-11T01:05:31.382Z,15.90
2022-12-11T01:07:58.487Z,13.10
2022-12-11T01:10:25.744Z,13.40
2022-12-11T01:12:56.600Z,11.60
2022-12-11T01:15:29.197Z,11.60
2022-12-11T01:17:56.875Z,12.80
2022-12-11T01:20:25.162Z,12.90
2022-12-11T01:22:53.800Z,13.70
2022-12-11T01:25:21.112Z,13.50
2022-12-11T01:27:51.184Z,13.20
2022-12-11T01:30:19.459Z,13.00
2022-12-11T01:32:46.608Z,13.40
2022-12-11T01:35:14.314Z,13.50
2022-12-11T01:37:41.330Z,12.30
2022-12-11T01:40:09.384Z,11.10
2022-12-11T01:42:37.011Z,10.90
2022-12-11T01:45:23.157Z,10.50
2022-12-11T01:47:55.148Z,9.90
2022-12-11T01:50:22.183Z,10.80
2022-12-11T01:52:49.514Z,10.10
2022-12-11T01:55:17.670Z,11.10
2022-12-11T01:57:49.127Z,9.90
2022-12-11T02:00:16.834Z,10.30
2022-12-11T02:02:44.073Z,9.40
2022-12-11T02:05:11.071Z,9.30
2022-12-11T02:07:45.939Z,8.60
2022-12-11T02:10:13.108Z,9.50
2022-12-11T02:12:56.126Z,11.30
2022-12-11T02:15:31.937Z,11.90
2022-12-11T02:18:01.626Z,10.60
2022-12-11T02:20:37.614Z,11.00
2022-12-11T02:23:13.045Z,11.00
2022-12-11T02:26:03.485Z,10.90
2022-12-11T02:28:45.155Z,11.60
2022-12-11T02:31:23.084Z,11.10
2022-12-11T02:34:09.847Z,11.20
2022-12-11T02:36:40.444Z,11.40
2022-12-11T02:39:10.501Z,11.90
2022-12-11T02:41:40.991Z,12.00
2022-12-11T02:44:12.049Z,10.80
2022-12-11T02:46:40.536Z,11.00
2022-12-11T02:49:09.865Z,10.30
2022-12-11T02:51:40.616Z,11.00
2022-12-11T02:54:16.656Z,10.40
2022-12-11T02:56:49.254Z,10.20
2022-12-11T02:59:21.388Z,9.90
2022-12-11T03:01:48.367Z,10.00
2022-12-11T03:04:15.231Z,9.30
2022-12-11T03:06:48.661Z,9.60
2022-12-11T03:09:15.753Z,10.20
2022-12-11T03:11:42.287Z,9.60
2022-12-11T03:14:09.169Z,10.00
2022-12-11T03:16:46.838Z,10.30
2022-12-11T03:19:27.998Z,10.20
2022-12-11T03:22:03.083Z,9.40
2022-12-11T03:24:54.560Z,9.40
2022-12-11T03:27:37.620Z,8.80
2022-12-11T03:30:12.249Z,7.10
2022-12-11T03:33:02.308Z,6.50
2022-12-11T03:35:40.097Z,6.50
2022-12-11T03:38:13.347Z,6.70
2022-12-11T03:40:43.990Z,6.00
2022-12-11T03:43:11.140Z,6.30
2022-12-11T03:45:39.625Z,6.30
2022-12-11T03:48:09.755Z,6.30
2022-12-11T03:50:37.326Z,6.50
2022-12-11T03:53:04.734Z,6.50
2022-12-11T03:55:33.785Z,6.30
2022-12-11T03:58:00.578Z,6.50
2022-12-11T04:00:28.529Z,6.50
2022-12-11T04:03:14.447Z,6.20
2022-12-11T04:05:47.530Z,6.40
2022-12-11T04:08:15.211Z,7.20
2022-12-11T04:10:42.582Z,7.10
2022-12-11T04:13:10.105Z,7.10
2022-12-11T04:15:38.558Z,6.90
2022-12-11T04:18:25.478Z,6.60
2022-12-11T04:21:14.533Z,7.00
2022-12-11T04:24:00.099Z,6.80
2022-12-11T04:26:26.779Z,6.90
2022-12-11T04:28:53.371Z,6.70
2022-12-11T04:31:21.691Z,6.60
2022-12-11T04:33:49.020Z,6.30
2022-12-11T04:36:16.056Z,5.90
2022-12-11T04:38:42.660Z,5.80
2022-12-11T04:41:12.085Z,6.00
2022-12-11T04:43:39.038Z,6.20
2022-12-11T04:46:21.014Z,6.00
2022-12-11T04:48:53.840Z,5.60
2022-12-11T04:51:23.579Z,5.90
2022-12-11T04:53:50.197Z,5.90
2022-12-11T04:56:16.950Z,6.50
2022-12-11T04:58:44.602Z,5.80
2022-12-11T05:01:17.199Z,6.40
2022-12-11T05:03:44.314Z,6.20
2022-12-11T05:06:11.792Z,6.50
2022-12-11T05:08:40.962Z,5.90
2022-12-11T05:11:10.832Z,6.60
2022-12-11T05:13:37.760Z,6.20
2022-12-11T05:16:05.544Z,6.40
2022-12-11T05:18:32.266Z,6.60
2022-12-11T05:21:05.010Z,6.20
2022-12-11T05:23:32.225Z,6.30
2022-12-11T05:26:01.927Z,6.00
2022-12-11T05:28:30.999Z,6.40
2022-12-11T05:31:02.038Z,6.60
2022-12-11T05:33:29.314Z,7.10
2022-12-11T05:35:56.150Z,6.80
2022-12-11T05:38:23.207Z,7.20
2022-12-11T05:41:05.345Z,6.90
2022-12-11T05:43:34.202Z,7.70
2022-12-11T05:46:08.985Z,6.70
2022-12-11T05:48:36.783Z,7.90
2022-12-11T05:51:05.321Z,9.70
2022-12-11T05:53:32.684Z,9.30
2022-12-11T05:56:15.257Z,7.10
2022-12-11T05:58:43.778Z,7.20
2022-12-11T06:01:13.570Z,6.90
2022-12-11T06:03:40.201Z,6.40
2022-12-11T06:06:07.609Z,6.50
2022-12-11T06:08:35.061Z,6.40
2022-12-11T06:11:01.782Z,6.90
2022-12-11T06:13:28.956Z,7.30
2022-12-11T06:15:59.026Z,6.70
2022-12-11T06:18:25.708Z,6.60
2022-12-11T06:20:52.345Z,6.80
2022-12-11T06:23:18.953Z,7.20
2022-12-11T06:25:45.592Z,7.30
2022-12-11T06:28:12.318Z,7.90
2022-12-11T06:30:39.687Z,6.70
2022-12-11T06:33:06.691Z,7.90
2022-12-11T06:35:36.281Z,9.30
2022-12-11T06:38:08.730Z,8.40
2022-12-11T06:40:35.519Z,8.60
2022-12-11T06:43:03.037Z,7.60
2022-12-11T06:45:30.213Z,6.70
2022-12-11T06:47:58.298Z,7.80
2022-12-11T06:50:25.105Z,8.00
2022-12-11T06:52:51.662Z,7.90
2022-12-11T06:55:18.245Z,7.40
2022-12-11T06:57:44.855Z,7.70
2022-12-11T07:00:12.066Z,8.40
2022-12-11T07:02:38.747Z,8.30
2022-12-11T07:05:05.742Z,8.70
2022-12-11T07:07:32.986Z,8.20
2022-12-11T07:10:07.335Z,9.40
2022-12-11T07:12:35.140Z,9.90
2022-12-11T07:15:02.309Z,10.00
2022-12-11T07:17:29.603Z,9.60
2022-12-11T07:19:56.559Z,9.40
2022-12-11T07:22:23.147Z,9.50
2022-12-11T07:24:49.792Z,10.90
2022-12-11T07:27:16.423Z,10.60
2022-12-11T07:29:43.050Z,10.40
2022-12-11T07:32:10.095Z,10.30
2022-12-11T07:34:37.189Z,8.10
2022-12-11T07:37:03.994Z,9.00
2022-12-11T07:39:30.613Z,11.40
2022-12-11T07:41:57.278Z,8.20
2022-12-11T07:44:23.918Z,8.00
2022-12-11T07:46:50.559Z,7.70
2022-12-11T07:49:17.187Z,8.30
2022-12-11T07:51:44.136Z,7.90
2022-12-11T07:54:15.874Z,8.20
2022-12-11T07:56:51.309Z,8.10
2022-12-11T07:59:20.597Z,8.30
2022-12-11T08:01:47.485Z,8.80
2022-12-11T08:04:15.155Z,9.30
2022-12-11T08:06:42.613Z,10.00
2022-12-11T08:09:15.996Z,8.70
2022-12-11T08:11:51.278Z,8.60
2022-12-11T08:14:18.981Z,8.80
2022-12-11T08:16:45.998Z,10.10
2022-12-11T08:19:13.559Z,13.90
2022-12-11T08:21:40.616Z,13.90
2022-12-11T08:24:09.463Z,12.00
2022-12-11T08:26:36.520Z,9.80
2022-12-11T08:29:03.119Z,8.50
2022-12-11T08:31:30.249Z,9.10
2022-12-11T08:33:57.809Z,10.70
2022-12-11T08:36:24.909Z,10.80
2022-12-11T08:38:53.215Z,8.50
2022-12-11T08:41:26.264Z,8.40
2022-12-11T08:43:57.078Z,9.70
2022-12-11T08:46:29.478Z,9.90
2022-12-11T08:48:57.288Z,9.00
2022-12-11T08:51:26.207Z,7.60
2022-12-11T08:54:00.106Z,8.50
2022-12-11T08:56:27.412Z,7.70
2022-12-11T08:58:54.014Z,8.70
2022-12-11T09:01:23.880Z,8.60
2022-12-11T09:03:52.187Z,8.90
2022-12-11T09:06:22.600Z,8.90
2022-12-11T09:08:52.912Z,9.40
2022-12-11T09:11:23.023Z,9.20
2022-12-11T09:13:54.136Z,7.50
2022-12-11T09:16:23.370Z,7.10
2022-12-11T09:18:51.768Z,7.60
2022-12-11T09:21:21.480Z,8.50
2022-12-11T09:23:49.113Z,8.60
2022-12-11T09:26:17.830Z,8.00
2022-12-11T09:28:47.058Z,8.40
2022-12-11T09:31:18.038Z,9.50
2022-12-11T09:33:45.701Z,9.00
2022-12-11T09:36:12.337Z,9.00
2022-12-11T09:38:39.486Z,7.70
2022-12-11T09:41:21.203Z,7.60
2022-12-11T09:44:09.723Z,7.70
2022-12-11T09:46:38.515Z,8.00
2022-12-11T09:49:17.027Z,8.80
2022-12-11T09:51:51.432Z,8.50
2022-12-11T09:54:18.101Z,8.20
2022-12-11T09:56:53.952Z,7.80
2022-12-11T09:59:35.836Z,8.50
2022-12-11T10:02:23.867Z,8.50
2022-12-11T10:05:09.407Z,8.50
2022-12-11T10:07:52.259Z,7.90
2022-12-11T10:10:27.788Z,7.10
2022-12-11T10:13:23.163Z,6.80
2022-12-11T10:16:28.052Z,7.10
2022-12-11T10:18:55.437Z,7.10
2022-12-11T10:21:22.863Z,6.30
2022-12-11T10:23:58.166Z,6.60
2022-12-11T10:26:25.062Z,6.10
2022-12-11T10:28:51.716Z,6.20
2022-12-11T10:31:38.568Z,7.20
2022-12-11T10:34:13.203Z,6.20
2022-12-11T10:36:42.151Z,5.20
2022-12-11T10:39:27.659Z,4.20
2022-12-11T10:41:55.934Z,4.50
2022-12-11T10:44:25.693Z,4.50
2022-12-11T10:47:13.172Z,5.80
2022-12-11T10:49:52.819Z,5.70
2022-12-11T10:52:37.573Z,6.40
2022-12-11T10:55:06.524Z,6.30
2022-12-11T10:57:38.682Z,6.20
2022-12-11T11:00:08.253Z,6.40
2022-12-11T11:02:38.240Z,5.90
2022-12-11T11:05:35.333Z,6.20
2022-12-11T11:08:14.554Z,6.20
2022-12-11T11:10:52.820Z,6.90
2022-12-11T11:13:22.849Z,7.10
2022-12-11T11:16:02.785Z,7.70
2022-12-11T11:18:30.318Z,6.90
2022-12-11T11:20:57.645Z,7.60
2022-12-11T11:23:25.454Z,7.50
2022-12-11T11:25:58.311Z,7.20
2022-12-11T11:28:28.673Z,7.50
2022-12-11T11:31:04.869Z,7.40
2022-12-11T11:33:34.658Z,7.40
2022-12-11T11:36:07.273Z,7.40
2022-12-11T11:39:38.361Z,7.50
2022-12-11T11:42:20.368Z,7.60
2022-12-11T11:45:09.812Z,8.20
2022-12-11T11:47:45.174Z,6.80
2022-12-11T11:50:19.617Z,6.50
2022-12-11T11:52:55.287Z,7.90
2022-12-11T11:55:55.212Z,7.70
2022-12-11T11:58:40.305Z,8.60
2022-12-11T12:01:15.733Z,7.40
2022-12-11T12:03:42.699Z,5.80
2022-12-11T12:06:16.550Z,8.80
2022-12-11T12:08:52.017Z,9.20
2022-12-11T12:11:31.997Z,10.30
2022-12-11T12:14:22.710Z,7.40
2022-12-11T12:17:00.344Z,9.30
2022-12-11T12:19:40.775Z,7.40
2022-12-11T12:22:27.531Z,6.90
2022-12-11T12:25:14.494Z,6.20
2022-12-11T12:27:59.719Z,5.90
2022-12-11T12:30:36.307Z,6.50
2022-12-11T12:33:44.696Z,6.20
2022-12-11T12:36:49.581Z,6.40
2022-12-11T12:39:44.264Z,6.50
2022-12-11T12:42:47.940Z,6.30
2022-12-11T12:45:14.691Z,7.10
2022-12-11T12:47:45.768Z,7.50
2022-12-11T12:50:24.082Z,7.90
2022-12-11T12:52:52.508Z,7.40
2022-12-11T12:55:24.159Z,7.90
2022-12-11T12:58:07.591Z,7.80
2022-12-11T13:00:37.295Z,7.40
2022-12-11T13:03:17.785Z,7.60
2022-12-11T13:05:56.085Z,7.80
2022-12-11T13:08:28.409Z,7.60
2022-12-11T13:11:11.531Z,8.00
2022-12-11T13:13:39.968Z,7.40
2022-12-11T13:16:34.240Z,8.50
2022-12-11T13:19:00.884Z,7.80
2022-12-11T13:21:34.989Z,7.90
2022-12-11T13:24:19.604Z,8.00
2022-12-11T13:26:47.753Z,8.00
2022-12-11T13:29:37.755Z,7.90
2022-12-11T13:32:07.353Z,8.50
2022-12-11T13:34:38.597Z,9.00
2022-12-11T13:37:06.912Z,9.20
2022-12-11T13:39:39.596Z,9.00
2022-12-11T13:42:20.166Z,9.00
2022-12-11T13:44:48.205Z,8.80
2022-12-11T13:47:18.233Z,9.20
2022-12-11T13:49:50.256Z,8.80
2022-12-11T13:52:19.515Z,9.60
2022-12-11T13:54:48.695Z,8.80
2022-12-11T13:57:17.937Z,8.90
2022-12-11T13:59:52.522Z,8.30
2022-12-11T14:02:29.935Z,8.70
2022-12-11T14:05:00.363Z,8.20
2022-12-11T14:07:31.936Z,8.60
2022-12-11T14:10:08.789Z,8.40
2022-12-11T14:12:36.437Z,7.20
2022-12-11T14:15:04.335Z,7.40
2022-12-11T14:17:34.006Z,7.30
2022-12-11T14:20:07.620Z,7.30
2022-12-11T14:22:34.343Z,6.70
2022-12-11T14:25:16.244Z,6.20
2022-12-11T14:27:51.672Z,6.60
2022-12-11T14:30:27.384Z,6.70
2022-12-11T14:33:00.705Z,7.00
2022-12-11T14:35:37.088Z,6.40
2022-12-11T14:38:21.480Z,6.90
2022-12-11T14:40:51.686Z,6.60
2022-12-11T14:43:33.005Z,6.00
2022-12-11T14:46:08.003Z,6.00
2022-12-11T14:48:43.130Z,6.00
2022-12-11T14:51:18.343Z,6.00
2022-12-11T14:53:48.409Z,6.00
2022-12-11T14:56:25.088Z,5.80
2022-12-11T14:59:08.548Z,6.10
2022-12-11T15:01:37.306Z,7.30
2022-12-11T15:04:19.450Z,7.40
2022-12-11T15:06:48.157Z,8.10
2022-12-11T15:09:35.057Z,7.60
2022-12-11T15:12:11.966Z,6.50
2022-12-11T15:14:54.466Z,6.10
2022-12-11T15:17:22.296Z,5.90
2022-12-11T15:19:56.272Z,5.20
2022-12-11T15:22:28.615Z,5.30
2022-12-11T15:24:55.425Z,5.30
2022-12-11T15:27:36.214Z,6.10
2022-12-11T15:30:26.372Z,5.70
2022-12-11T15:33:01.999Z,5.80
2022-12-11T15:35:28.711Z,5.70
2022-12-11T15:37:57.660Z,5.90
2022-12-11T15:40:26.139Z,5.70
2022-12-11T15:42:54.463Z,5.70
2022-12-11T15:45:25.462Z,5.80
2022-12-11T15:47:52.911Z,5.70
2022-12-11T15:50:20.211Z,5.60
2022-12-11T15:52:47.897Z,5.80
2022-12-11T15:55:15.192Z,6.00
2022-12-11T15:57:47.570Z,5.80
2022-12-11T16:00:15.982Z,5.90
2022-12-11T16:02:42.701Z,5.40
2022-12-11T16:05:10.376Z,5.50
2022-12-11T16:07:37.574Z,6.40
2022-12-11T16:10:05.393Z,6.30
2022-12-11T16:12:32.071Z,5.80
2022-12-11T16:14:58.640Z,6.00
2022-12-11T16:17:25.405Z,5.70
2022-12-11T16:19:53.541Z,5.60
2022-12-11T16:22:20.280Z,5.70
2022-12-11T16:24:46.998Z,5.20
2022-12-11T16:27:17.336Z,5.50
2022-12-11T16:29:47.033Z,5.70
2022-12-11T16:32:13.672Z,5.80
2022-12-11T16:34:40.403Z,6.00
2022-12-11T16:37:08.535Z,6.80
2022-12-11T16:39:36.740Z,6.40
2022-12-11T16:42:04.502Z,6.20
2022-12-11T16:44:31.400Z,6.30
2022-12-11T16:46:58.305Z,8.00
2022-12-11T16:49:25.412Z,6.60
2022-12-11T16:51:52.156Z,6.70
2022-12-11T16:54:18.848Z,5.60
2022-12-11T16:56:45.672Z,5.80
2022-12-11T16:59:12.352Z,5.50
2022-12-11T17:01:40.509Z,5.60
2022-12-11T17:04:07.608Z,5.40
2022-12-11T17:06:34.371Z,5.50
2022-12-11T17:09:01.217Z,5.10
2022-12-11T17:11:28.007Z,5.50
2022-12-11T17:13:56.125Z,5.60
2022-12-11T17:16:25.541Z,5.20
2022-12-11T17:18:52.864Z,5.20
2022-12-11T17:21:21.754Z,5.60
2022-12-11T17:23:49.005Z,5.70
2022-12-11T17:26:16.352Z,5.90
2022-12-11T17:28:43.930Z,5.80
2022-12-11T17:31:16.629Z,6.20
2022-12-11T17:33:45.460Z,6.40
2022-12-11T17:36:15.560Z,6.70
2022-12-11T17:38:42.570Z,6.70
2022-12-11T17:41:15.475Z,7.00
2022-12-11T17:43:48.170Z,6.50
2022-12-11T17:46:14.818Z,6.70
2022-12-11T17:48:42.456Z,6.90
2022-12-11T17:51:11.428Z,6.30
2022-12-11T17:53:38.511Z,6.80
2022-12-11T17:56:07.665Z,7.00
2022-12-11T17:58:34.649Z,6.80
2022-12-11T18:01:07.327Z,6.70
2022-12-11T18:03:34.625Z,6.30
2022-12-11T18:06:05.927Z,6.80
2022-12-11T18:08:32.755Z,6.60
2022-12-11T18:11:15.190Z,6.90
2022-12-11T18:13:43.357Z,6.80
2022-12-11T18:16:16.863Z,6.90
2022-12-11T18:18:45.627Z,7.10
2022-12-11T18:21:14.624Z,6.90
2022-12-11T18:23:41.777Z,6.00
2022-12-11T18:26:10.343Z,6.00
2022-12-11T18:28:36.988Z,6.40
2022-12-11T18:31:04.001Z,6.40
2022-12-11T18:33:31.648Z,5.70
2022-12-11T18:35:58.377Z,5.20
2022-12-11T18:38:25.239Z,5.80
2022-12-11T18:40:51.793Z,6.40
2022-12-11T18:43:18.441Z,5.60
2022-12-11T18:45:45.180Z,5.90
2022-12-11T18:48:13.083Z,5.90
2022-12-11T18:50:47.738Z,6.20
2022-12-11T18:53:15.233Z,5.60
2022-12-11T18:55:46.945Z,5.90
2022-12-11T18:58:16.067Z,6.80
2022-12-11T19:00:43.066Z,6.80
2022-12-11T19:03:11.463Z,6.30
2022-12-11T19:05:41.828Z,6.40
2022-12-11T19:08:11.844Z,6.30
2022-12-11T19:10:44.211Z,6.60
2022-12-11T19:13:11.173Z,6.60
2022-12-11T19:15:43.292Z,7.00
2022-12-11T19:18:10.873Z,7.10
2022-12-11T19:21:03.092Z,6.80
2022-12-11T19:23:25.739Z,6.40
2022-12-11T19:25:52.461Z,6.50
2022-12-11T19:28:19.121Z,6.80
2022-12-11T19:30:48.417Z,6.10
2022-12-11T19:33:15.931Z,6.70
2022-12-11T19:35:43.173Z,6.20
2022-12-11T19:38:12.163Z,6.10
2022-12-11T19:40:41.081Z,7.40
2022-12-11T19:43:08.157Z,7.10
2022-12-11T19:45:35.346Z,6.70
2022-12-11T19:48:02.458Z,6.10
2022-12-11T19:50:29.279Z,6.60
2022-12-11T19:52:55.914Z,6.40
2022-12-11T19:55:22.650Z,6.30
2022-12-11T19:57:49.229Z,6.90
2022-12-11T20:00:16.694Z,7.20
2022-12-11T20:02:43.476Z,6.70
2022-12-11T20:05:10.747Z,7.90
2022-12-11T20:07:38.137Z,6.50
2022-12-11T20:10:05.483Z,6.60
2022-12-11T20:12:32.076Z,7.00
2022-12-11T20:14:58.872Z,7.50
2022-12-11T20:17:25.505Z,7.70
2022-12-11T20:19:52.305Z,8.30
2022-12-11T20:22:18.949Z,7.80
2022-12-11T20:24:45.552Z,7.80
2022-12-11T20:27:12.186Z,7.20
2022-12-11T20:29:39.039Z,7.10
2022-12-11T20:32:06.701Z,6.80
2022-12-11T20:34:33.428Z,6.80
2022-12-11T20:37:00.039Z,7.30
2022-12-11T20:39:26.700Z,6.90
2022-12-11T20:41:53.425Z,7.80
2022-12-11T20:44:20.174Z,7.20
2022-12-11T20:46:46.949Z,7.20
2022-12-11T20:49:13.684Z,8.30
2022-12-11T20:51:40.808Z,7.80
2022-12-11T20:54:08.158Z,8.10
2022-12-11T20:56:35.541Z,7.00
2022-12-11T20:59:02.177Z,6.30
2022-12-11T21:01:30.882Z,7.00
2022-12-11T21:03:57.965Z,7.00
2022-12-11T21:06:33.937Z,7.90
2022-12-11T21:09:03.894Z,6.80
2022-12-11T21:11:30.525Z,7.30
2022-12-11T21:13:57.487Z,7.00
2022-12-11T21:16:24.779Z,6.80
2022-12-11T21:18:51.553Z,6.60
2022-12-11T21:21:20.030Z,5.40
2022-12-11T21:23:47.440Z,5.60
2022-12-11T21:26:14.219Z,5.00
2022-12-11T21:28:41.373Z,6.30
2022-12-11T21:31:11.541Z,6.90
2022-12-11T21:33:38.232Z,7.30
2022-12-11T21:36:06.336Z,7.60
2022-12-11T21:38:33.195Z,7.60
2022-12-11T21:41:07.928Z,7.30
2022-12-11T21:43:34.515Z,7.30
2022-12-11T21:46:02.178Z,7.00
2022-12-11T21:48:29.374Z,7.20
2022-12-11T21:51:13.972Z,7.90
2022-12-11T21:53:41.462Z,6.90
2022-12-11T21:56:10.663Z,7.00
2022-12-11T21:58:38.774Z,6.70
2022-12-11T22:01:10.910Z,6.90
2022-12-11T22:03:37.613Z,7.00
2022-12-11T22:06:04.504Z,7.30
2022-12-11T22:08:31.164Z,7.30
2022-12-11T22:10:57.857Z,7.00
2022-12-11T22:13:24.460Z,7.90
2022-12-11T22:15:51.827Z,7.70
2022-12-11T22:18:18.761Z,7.60
2022-12-11T22:20:45.918Z,6.60
2022-12-11T22:23:12.649Z,4.90
2022-12-11T22:25:39.396Z,4.10
2022-12-11T22:28:06.006Z,4.70
2022-12-11T22:30:32.704Z,4.30
2022-12-11T22:32:59.398Z,4.00
2022-12-11T22:35:27.543Z,4.00
2022-12-11T22:37:54.467Z,4.30
2022-12-11T22:40:21.168Z,4.10
2022-12-11T22:42:48.271Z,4.00
2022-12-11T22:45:15.281Z,4.00
2022-12-11T22:47:41.915Z,3.90
2022-12-11T22:50:10.094Z,3.90
2022-12-11T22:52:37.054Z,3.60
2022-12-11T22:55:04.268Z,3.40
2022-12-11T22:57:30.975Z,3.50
2022-12-11T22:59:57.537Z,3.30
2022-12-11T23:02:24.218Z,3.50
2022-12-11T23:04:50.902Z,3.60
2022-12-11T23:07:17.621Z,3.60
2022-12-11T23:09:44.249Z,3.30
2022-12-11T23:12:10.867Z,3.10
2022-12-11T23:14:37.616Z,3.30
2022-12-11T23:17:04.324Z,3.30
2022-12-11T23:19:31.076Z,4.00
2022-12-11T23:21:57.664Z,3.60
2022-12-11T23:24:24.254Z,3.30
2022-12-11T23:26:50.856Z,3.70
2022-12-11T23:29:17.474Z,3.30
2022-12-11T23:31:44.132Z,4.20
2022-12-11T23:34:11.051Z,3.50
2022-12-11T23:36:38.085Z,3.60
2022-12-11T23:39:05.894Z,3.60
2022-12-11T23:41:32.498Z,3.90
2022-12-11T23:43:59.388Z,3.60
2022-12-11T23:46:26.168Z,3.70
2022-12-11T23:48:54.020Z,3.70
2022-12-11T23:51:23.225Z,3.50
2022-12-11T23:53:50.481Z,3.30
2022-12-11T23:56:26.500Z,3.50
2022-12-11T23:58:53.696Z,3.40
